Time;durP1;ratioP1;P1;durP2;ratioP2;P2;SDS_P1;SDS_P2;PMS_P1;PMS_P2;Temp;Humidity;BMP_temperature;BMP_pressure;BME280_temperature;BME280_humidity;BME280_pressure;Samples;Min_cycle;Max_cycle;Signal;HPM_P1;HPM_P2
2023/09/29 00:00:34;;;;;;;12.30;8.63;;;18.80;99.90;;;;;;4984430;28;20209;-72
2023/09/29 00:02:59;;;;;;;14.50;8.70;;;18.70;99.90;;;;;;4991595;28;20268;-72
2023/09/29 00:05:27;;;;;;;10.60;8.07;;;18.70;99.90;;;;;;4993242;28;20212;-72
2023/09/29 00:07:53;;;;;;;10.03;8.50;;;18.70;99.90;;;;;;4987467;28;20189;-72
2023/09/29 00:10:20;;;;;;;10.35;8.27;;;18.70;99.90;;;;;;4985180;28;20196;-72
2023/09/29 00:12:48;;;;;;;13.93;9.23;;;18.70;99.90;;;;;;4992363;28;20672;-73
2023/09/29 00:15:15;;;;;;;14.20;9.77;;;18.70;99.90;;;;;;4992048;28;20184;-72
2023/09/29 00:17:41;;;;;;;13.10;8.70;;;18.70;99.90;;;;;;4991791;28;20220;-72
2023/09/29 00:22:39;;;;;;;12.93;7.83;;;18.70;99.90;;;;;;4982568;28;20284;-71
2023/09/29 00:25:06;;;;;;;10.07;7.60;;;18.60;99.90;;;;;;4983898;28;20276;-72
2023/09/29 00:27:31;;;;;;;11.30;8.27;;;18.60;99.90;;;;;;4991716;28;20187;-72
2023/09/29 00:29:57;;;;;;;10.18;7.78;;;18.60;99.90;;;;;;4991711;28;20575;-72
2023/09/29 00:32:23;;;;;;;12.97;7.57;;;18.60;99.90;;;;;;4991619;28;20212;-72
2023/09/29 00:34:48;;;;;;;10.10;7.67;;;18.70;99.90;;;;;;4989281;28;20403;-72
2023/09/29 00:37:15;;;;;;;9.33;8.30;;;18.60;99.90;;;;;;4980769;28;20240;-72
2023/09/29 00:39:40;;;;;;;9.17;8.17;;;18.60;99.90;;;;;;4989467;28;20570;-72
2023/09/29 00:42:06;;;;;;;8.57;7.67;;;18.70;99.90;;;;;;4991351;28;20526;-72
2023/09/29 00:44:33;;;;;;;9.03;7.97;;;18.70;99.90;;;;;;4990365;28;20180;-71
2023/09/29 00:47:00;;;;;;;12.93;8.00;;;18.70;99.90;;;;;;4991502;28;20200;-72
2023/09/29 00:49:29;;;;;;;8.03;7.30;;;18.70;99.90;;;;;;4991934;28;20800;-72
2023/09/29 00:52:00;;;;;;;12.37;8.17;;;18.70;99.90;;;;;;4991380;28;20200;-72
2023/09/29 00:54:36;;;;;;;10.33;7.93;;;18.70;99.90;;;;;;4995794;28;20183;-71
2023/09/29 00:57:05;;;;;;;10.00;7.53;;;18.70;99.90;;;;;;4990575;28;20185;-71
2023/09/29 00:59:32;;;;;;;10.33;7.63;;;18.70;99.90;;;;;;4991596;28;20189;-71
2023/09/29 01:01:58;;;;;;;9.43;8.35;;;18.70;99.90;;;;;;4995145;28;20185;-72
2023/09/29 01:04:24;;;;;;;12.30;7.93;;;18.70;99.90;;;;;;4994304;28;20184;-71
2023/09/29 01:06:50;;;;;;;13.40;8.20;;;18.70;99.90;;;;;;4993989;28;20577;-72
2023/09/29 01:09:16;;;;;;;9.43;8.17;;;18.80;99.90;;;;;;4991539;28;20254;-71
2023/09/29 01:11:46;;;;;;;13.63;8.03;;;18.80;99.90;;;;;;4992688;28;20176;-73
2023/09/29 01:14:12;;;;;;;13.48;8.40;;;18.80;99.90;;;;;;4995130;28;20263;-71
2023/09/29 01:16:39;;;;;;;10.45;8.48;;;18.80;99.90;;;;;;4995198;28;20263;-71
2023/09/29 01:19:12;;;;;;;13.07;8.90;;;18.70;99.90;;;;;;4995044;28;20188;-72
2023/09/29 01:21:47;;;;;;;13.07;9.17;;;18.70;99.90;;;;;;4993596;28;20173;-72
2023/09/29 01:24:16;;;;;;;12.68;8.13;;;18.70;99.90;;;;;;4989453;28;20177;-72
2023/09/29 01:26:44;;;;;;;10.13;9.13;;;18.70;99.90;;;;;;4992703;28;20177;-71
2023/09/29 01:29:11;;;;;;;11.53;8.77;;;18.70;99.90;;;;;;4994885;28;20201;-72
2023/09/29 01:31:37;;;;;;;12.07;8.43;;;18.60;99.90;;;;;;4994465;28;20547;-72
2023/09/29 01:34:04;;;;;;;13.90;9.20;;;18.70;99.90;;;;;;4985419;28;20268;-72
2023/09/29 01:36:30;;;;;;;13.70;8.80;;;18.70;99.90;;;;;;4990983;28;20180;-71
2023/09/29 01:38:56;;;;;;;9.87;8.87;;;18.60;99.90;;;;;;4992995;28;20205;-72
2023/09/29 01:41:21;;;;;;;12.67;10.40;;;18.60;99.90;;;;;;4985311;28;20209;-71
2023/09/29 01:43:47;;;;;;;10.60;9.50;;;18.50;99.90;;;;;;4991548;28;20184;-71
2023/09/29 01:46:15;;;;;;;13.13;9.00;;;18.50;99.90;;;;;;4994610;28;20630;-72
2023/09/29 01:48:41;;;;;;;10.33;9.20;;;18.50;99.90;;;;;;4994661;28;20533;-71
2023/09/29 01:51:07;;;;;;;9.60;8.60;;;18.50;99.90;;;;;;4994480;28;20738;-71
2023/09/29 01:53:32;;;;;;;10.30;8.40;;;18.50;99.90;;;;;;4989698;28;20471;-72
2023/09/29 01:55:58;;;;;;;9.53;7.83;;;18.50;99.90;;;;;;4994073;28;20173;-71
2023/09/29 01:58:24;;;;;;;10.53;9.47;;;18.50;99.90;;;;;;4994441;28;20176;-71
2023/09/29 02:00:50;;;;;;;11.70;8.53;;;18.50;99.90;;;;;;4993284;28;20212;-72
2023/09/29 02:03:16;;;;;;;11.10;9.37;;;18.50;99.90;;;;;;4990785;28;20185;-71
2023/09/29 02:05:42;;;;;;;14.70;8.80;;;18.40;99.90;;;;;;4990345;28;20204;-72
2023/09/29 02:08:09;;;;;;;12.90;9.20;;;18.30;99.90;;;;;;4994153;28;20247;-71
2023/09/29 02:10:36;;;;;;;14.13;8.83;;;18.30;99.90;;;;;;4985382;28;20193;-71
2023/09/29 02:13:04;;;;;;;10.23;9.00;;;18.20;99.90;;;;;;4985858;28;20204;-71
2023/09/29 02:15:34;;;;;;;12.53;9.50;;;18.20;99.90;;;;;;4994256;28;20205;-72
2023/09/29 02:18:07;;;;;;;12.03;9.43;;;18.20;99.90;;;;;;4994003;28;20534;-72
2023/09/29 02:20:33;;;;;;;10.90;9.17;;;18.10;99.90;;;;;;4994214;28;20242;-71
2023/09/29 02:23:00;;;;;;;11.17;9.17;;;18.20;99.90;;;;;;4993869;28;20200;-71
2023/09/29 02:25:26;;;;;;;12.67;9.23;;;18.10;99.90;;;;;;4994220;28;20177;-71
2023/09/29 02:27:54;;;;;;;11.53;9.00;;;18.20;99.90;;;;;;4988274;28;20185;-72
2023/09/29 02:30:19;;;;;;;13.23;8.63;;;18.10;99.90;;;;;;4988189;28;20192;-71
2023/09/29 02:32:45;;;;;;;12.87;8.87;;;18.10;99.90;;;;;;4992770;28;20211;-71
2023/09/29 02:35:11;;;;;;;10.93;8.10;;;18.20;99.90;;;;;;4993873;28;20251;-71
2023/09/29 02:37:37;;;;;;;11.07;7.60;;;18.20;99.90;;;;;;4993820;28;20252;-71
2023/09/29 02:40:06;;;;;;;14.07;8.07;;;18.20;99.90;;;;;;4992404;28;20192;-71
2023/09/29 02:42:31;;;;;;;13.57;8.40;;;18.20;99.90;;;;;;4993692;28;20231;-71
2023/09/29 02:44:57;;;;;;;12.43;8.40;;;18.20;99.90;;;;;;4985455;28;20192;-71
2023/09/29 02:47:23;;;;;;;13.10;8.03;;;18.20;99.90;;;;;;4986453;28;20231;-71
2023/09/29 02:49:48;;;;;;;10.17;8.70;;;18.20;99.90;;;;;;4983431;28;20236;-71
2023/09/29 02:52:15;;;;;;;8.77;7.87;;;18.20;99.90;;;;;;4987946;28;20316;-73
2023/09/29 02:54:41;;;;;;;13.23;8.37;;;18.20;99.90;;;;;;4993740;28;20176;-71
2023/09/29 02:57:07;;;;;;;11.83;8.53;;;18.20;99.90;;;;;;4993362;28;20165;-72
2023/09/29 02:59:37;;;;;;;10.63;8.67;;;18.20;99.90;;;;;;4989256;28;20599;-71
2023/09/29 03:02:04;;;;;;;16.27;8.83;;;18.20;99.90;;;;;;4993239;28;20177;-71
2023/09/29 03:04:30;;;;;;;12.67;8.03;;;18.20;99.90;;;;;;4985379;28;20176;-71
2023/09/29 03:06:56;;;;;;;12.33;8.57;;;18.10;99.90;;;;;;4993255;28;20181;-71
2023/09/29 03:09:22;;;;;;;15.27;8.90;;;18.00;99.90;;;;;;4993290;28;20196;-72
2023/09/29 03:11:49;;;;;;;15.13;8.57;;;18.00;99.90;;;;;;4992713;28;20715;-71
2023/09/29 03:14:16;;;;;;;12.97;8.80;;;18.00;99.90;;;;;;4989021;28;20178;-71
2023/09/29 03:16:42;;;;;;;10.80;8.50;;;18.00;99.90;;;;;;4982192;28;20669;-71
2023/09/29 03:19:08;;;;;;;9.87;8.03;;;18.00;99.90;;;;;;4992953;28;20556;-71
2023/09/29 03:21:34;;;;;;;12.90;8.00;;;18.00;99.90;;;;;;4991526;28;20204;-71
2023/09/29 03:24:01;;;;;;;12.67;8.27;;;18.00;99.90;;;;;;4992809;28;20262;-72
2023/09/29 03:26:27;;;;;;;10.67;8.13;;;18.10;99.90;;;;;;4982983;28;20185;-71
2023/09/29 03:28:55;;;;;;;12.00;8.83;;;18.10;99.90;;;;;;4991115;28;20212;-71
2023/09/29 03:31:26;;;;;;;13.30;7.80;;;18.10;99.90;;;;;;4992625;28;20184;-71
2023/09/29 03:33:52;;;;;;;10.03;7.27;;;18.20;99.90;;;;;;4988258;28;20209;-71
2023/09/29 03:36:23;;;;;;;11.47;7.33;;;18.20;99.90;;;;;;4992924;28;20173;-71
2023/09/29 03:38:49;;;;;;;11.17;7.73;;;18.20;99.90;;;;;;4992702;28;20271;-71
2023/09/29 03:41:14;;;;;;;11.10;7.60;;;18.20;99.90;;;;;;4992348;28;20709;-71
2023/09/29 03:43:41;;;;;;;12.17;7.73;;;18.20;99.90;;;;;;4991284;28;20666;-71
2023/09/29 03:46:17;;;;;;;11.23;7.50;;;18.20;99.90;;;;;;4976577;28;20262;-72
2023/09/29 03:48:46;;;;;;;7.93;6.87;;;18.20;99.90;;;;;;4986228;28;20675;-71
2023/09/29 03:51:38;;;;;;;10.03;7.10;;;18.30;99.90;;;;;;4991745;28;20180;-71
2023/09/29 03:54:05;;;;;;;11.23;7.70;;;18.30;99.90;;;;;;4990025;28;20201;-71
2023/09/29 03:56:30;;;;;;;11.73;8.17;;;18.30;99.90;;;;;;4992373;28;20606;-71
2023/09/29 03:58:56;;;;;;;9.97;7.77;;;18.20;99.90;;;;;;4992152;28;20239;-71
2023/09/29 04:01:22;;;;;;;8.10;7.30;;;18.20;99.90;;;;;;4987620;28;20562;-71
2023/09/29 04:03:48;;;;;;;7.97;7.07;;;18.20;99.90;;;;;;4989480;28;20176;-71
2023/09/29 04:06:14;;;;;;;7.87;7.17;;;18.20;99.90;;;;;;4988312;28;20173;-71
2023/09/29 04:08:40;;;;;;;9.17;7.10;;;18.20;99.90;;;;;;4988426;28;20173;-71
2023/09/29 04:11:06;;;;;;;8.07;7.27;;;18.20;99.90;;;;;;4991851;28;20272;-71
2023/09/29 04:13:31;;;;;;;11.63;7.37;;;18.20;99.90;;;;;;4992076;28;20632;-71
2023/09/29 04:15:59;;;;;;;7.47;6.77;;;18.20;99.90;;;;;;4991780;28;20249;-72
2023/09/29 04:18:24;;;;;;;7.80;7.10;;;18.20;99.90;;;;;;4987286;28;20231;-71
2023/09/29 04:20:50;;;;;;;7.83;7.03;;;18.10;99.90;;;;;;4983677;28;20205;-71
2023/09/29 04:23:16;;;;;;;9.00;7.97;;;18.10;99.90;;;;;;4991782;28;20249;-71
2023/09/29 04:25:43;;;;;;;9.10;7.20;;;18.10;99.90;;;;;;4991767;28;20181;-71
2023/09/29 04:28:08;;;;;;;7.60;6.90;;;18.10;99.90;;;;;;4991913;28;20208;-71
2023/09/29 04:30:34;;;;;;;11.67;7.67;;;18.10;99.90;;;;;;4991896;28;20224;-72
2023/09/29 04:33:00;;;;;;;8.47;7.23;;;18.10;99.90;;;;;;4988998;28;20210;-71
2023/09/29 04:35:26;;;;;;;7.20;6.50;;;18.00;99.90;;;;;;4990711;28;20244;-71
2023/09/29 04:37:51;;;;;;;8.03;7.20;;;18.00;99.90;;;;;;4991819;28;20184;-72
2023/09/29 04:40:17;;;;;;;8.47;7.63;;;18.00;99.90;;;;;;4991508;28;20696;-71
2023/09/29 04:42:42;;;;;;;7.87;6.90;;;17.90;99.90;;;;;;4991579;28;20208;-72
2023/09/29 04:45:08;;;;;;;9.50;7.10;;;17.90;99.90;;;;;;4983548;28;20718;-71
2023/09/29 04:47:34;;;;;;;9.80;7.60;;;17.90;99.90;;;;;;4989635;28;20189;-72
2023/09/29 04:49:59;;;;;;;8.77;7.70;;;17.90;99.90;;;;;;4991453;28;20209;-71
2023/09/29 04:52:26;;;;;;;9.57;7.60;;;17.90;99.90;;;;;;4990167;28;20197;-72
2023/09/29 04:54:52;;;;;;;8.57;7.57;;;17.90;99.90;;;;;;4991552;28;20203;-72
2023/09/29 04:57:18;;;;;;;12.17;6.90;;;17.90;99.90;;;;;;4984221;28;20185;-72
2023/09/29 04:59:44;;;;;;;8.00;7.20;;;17.90;99.90;;;;;;4991407;28;20533;-72
2023/09/29 05:02:09;;;;;;;11.43;7.13;;;17.90;99.90;;;;;;4990071;28;20192;-71
2023/09/29 05:04:35;;;;;;;8.00;7.27;;;17.90;99.90;;;;;;4990767;28;20208;-71
2023/09/29 05:07:00;;;;;;;8.27;7.03;;;17.90;99.90;;;;;;4991393;28;20584;-72
2023/09/29 05:09:26;;;;;;;14.37;7.93;;;17.90;99.90;;;;;;4991447;28;20227;-71
2023/09/29 05:11:51;;;;;;;9.73;8.07;;;17.90;99.90;;;;;;4991231;28;20203;-71
2023/09/29 05:14:17;;;;;;;10.43;7.87;;;17.90;99.90;;;;;;4991378;28;20169;-71
2023/09/29 05:16:43;;;;;;;8.63;7.33;;;17.90;99.90;;;;;;4990273;28;20177;-71
2023/09/29 05:19:10;;;;;;;8.73;7.70;;;17.90;99.90;;;;;;4988369;28;20200;-71
2023/09/29 05:21:36;;;;;;;10.67;8.20;;;17.80;99.90;;;;;;4985255;28;20173;-72
2023/09/29 05:24:02;;;;;;;10.47;8.53;;;17.90;99.90;;;;;;4989745;28;20177;-71
2023/09/29 05:26:28;;;;;;;9.30;7.73;;;17.80;99.90;;;;;;4985804;28;20196;-72
2023/09/29 05:28:55;;;;;;;10.40;7.57;;;17.80;99.90;;;;;;4991234;28;20184;-71
2023/09/29 05:31:21;;;;;;;9.23;7.70;;;17.80;99.90;;;;;;4991149;28;20660;-71
2023/09/29 05:33:46;;;;;;;11.37;8.20;;;17.80;99.90;;;;;;4991130;28;20288;-72
2023/09/29 05:36:12;;;;;;;11.73;8.00;;;17.80;99.90;;;;;;4991131;28;20540;-72
2023/09/29 05:38:37;;;;;;;9.77;8.10;;;17.80;99.90;;;;;;4990332;28;20637;-72
2023/09/29 05:41:03;;;;;;;11.07;7.70;;;17.80;99.90;;;;;;4989234;28;20209;-71
2023/09/29 05:43:29;;;;;;;10.03;7.80;;;17.80;99.90;;;;;;4994875;28;20173;-72
2023/09/29 05:45:54;;;;;;;9.73;7.40;;;17.90;99.90;;;;;;4987774;28;20216;-72
2023/09/29 05:48:20;;;;;;;9.73;7.50;;;17.90;99.90;;;;;;4991597;28;20197;-72
2023/09/29 05:50:45;;;;;;;11.40;7.20;;;18.00;99.90;;;;;;4990784;28;20259;-72
2023/09/29 05:53:11;;;;;;;7.80;6.90;;;18.00;99.90;;;;;;4994309;28;20205;-71
2023/09/29 05:55:38;;;;;;;7.37;6.67;;;18.10;99.90;;;;;;4994194;28;20657;-72
2023/09/29 05:58:04;;;;;;;10.47;7.40;;;18.20;99.90;;;;;;4992949;28;20215;-71
2023/09/29 06:00:30;;;;;;;10.20;7.30;;;18.30;99.90;;;;;;4993893;28;20575;-71
2023/09/29 06:02:55;;;;;;;8.63;6.70;;;18.30;99.90;;;;;;4990664;28;20950;-72
2023/09/29 06:05:21;;;;;;;9.50;6.70;;;18.40;99.90;;;;;;4994118;28;20661;-71
2023/09/29 06:07:47;;;;;;;8.17;6.67;;;18.40;99.90;;;;;;4994025;28;20231;-72
2023/09/29 06:10:13;;;;;;;9.77;6.47;;;18.50;99.90;;;;;;4991297;28;20668;-72
2023/09/29 06:12:38;;;;;;;7.67;6.90;;;18.50;99.90;;;;;;4993858;28;20208;-72
2023/09/29 06:15:06;;;;;;;8.40;6.60;;;18.50;99.90;;;;;;4987518;28;20176;-72
2023/09/29 06:17:31;;;;;;;8.93;6.73;;;18.50;99.90;;;;;;4994137;28;20260;-72
2023/09/29 06:19:57;;;;;;;12.47;6.93;;;18.50;99.90;;;;;;4993706;28;20279;-72
2023/09/29 06:22:25;;;;;;;8.23;6.17;;;18.50;99.90;;;;;;4991980;28;20185;-71
2023/09/29 06:24:50;;;;;;;8.90;6.73;;;18.60;99.90;;;;;;4990592;28;20268;-72
2023/09/29 06:27:16;;;;;;;8.60;6.20;;;18.60;99.90;;;;;;4993767;28;20263;-71
2023/09/29 06:29:46;;;;;;;8.83;6.03;;;18.70;99.90;;;;;;4993731;28;20200;-72
2023/09/29 06:32:12;;;;;;;6.37;5.83;;;18.70;99.90;;;;;;4993286;28;20197;-72
2023/09/29 06:34:38;;;;;;;8.23;5.87;;;18.80;99.90;;;;;;4985809;28;20173;-72
2023/09/29 06:37:04;;;;;;;8.83;6.37;;;18.90;99.90;;;;;;4992642;28;20189;-72
2023/09/29 06:39:30;;;;;;;9.17;6.33;;;19.00;99.90;;;;;;4987460;28;20280;-72
2023/09/29 06:41:56;;;;;;;7.30;6.13;;;19.00;99.90;;;;;;4987258;28;20268;-71
2023/09/29 06:44:22;;;;;;;8.17;6.40;;;19.00;99.90;;;;;;4985445;28;20184;-71
2023/09/29 06:46:48;;;;;;;9.43;6.57;;;19.00;99.90;;;;;;4993084;28;20347;-72
2023/09/29 06:49:14;;;;;;;9.27;5.77;;;19.10;99.90;;;;;;4992379;28;20280;-72
2023/09/29 06:51:39;;;;;;;9.93;6.27;;;19.10;99.90;;;;;;4993278;28;20177;-72
2023/09/29 06:54:05;;;;;;;8.17;6.07;;;19.30;99.90;;;;;;4993150;28;20691;-71
2023/09/29 06:56:31;;;;;;;6.83;5.90;;;19.30;99.90;;;;;;4988437;28;20182;-72
2023/09/29 06:58:56;;;;;;;11.17;5.93;;;19.40;99.90;;;;;;4990421;28;20177;-72
2023/09/29 07:01:22;;;;;;;6.47;5.60;;;19.50;99.90;;;;;;4992543;28;20184;-72
2023/09/29 07:03:48;;;;;;;10.63;5.50;;;19.60;99.90;;;;;;4993131;28;20337;-72
2023/09/29 07:06:14;;;;;;;6.47;4.93;;;19.90;99.90;;;;;;4992730;28;20719;-71
2023/09/29 07:08:40;;;;;;;9.23;5.80;;;20.10;99.90;;;;;;4993103;28;20235;-71
2023/09/29 07:11:06;;;;;;;6.53;4.95;;;20.40;99.90;;;;;;4986515;28;20204;-71
2023/09/29 07:13:31;;;;;;;5.10;4.50;;;20.80;99.90;;;;;;4992723;28;20215;-71
2023/09/29 07:15:58;;;;;;;7.50;5.03;;;21.30;99.90;;;;;;4992771;28;20582;-71
2023/09/29 07:18:23;;;;;;;6.15;4.55;;;21.70;99.90;;;;;;4992757;28;20177;-71
2023/09/29 07:20:52;;;;;;;8.35;4.28;;;22.00;99.90;;;;;;4988894;28;20204;-71
2023/09/29 07:23:19;;;;;;;7.35;4.38;;;22.20;99.90;;;;;;4992644;28;20523;-71
2023/09/29 07:25:46;;;;;;;6.30;4.13;;;22.10;99.90;;;;;;4992776;28;20570;-71
2023/09/29 07:28:13;;;;;;;7.53;4.63;;;22.00;99.90;;;;;;4992392;28;20189;-71
2023/09/29 07:30:41;;;;;;;6.47;4.43;;;21.80;99.90;;;;;;4992517;28;20197;-71
2023/09/29 07:33:06;;;;;;;7.38;5.00;;;21.60;99.90;;;;;;4992199;28;20208;-71
2023/09/29 07:35:32;;;;;;;6.72;5.10;;;21.40;99.90;;;;;;4987102;28;20203;-71
2023/09/29 07:38:00;;;;;;;5.93;4.72;;;21.30;99.90;;;;;;4986687;28;20189;-71
2023/09/29 07:40:25;;;;;;;6.10;4.82;;;21.20;99.90;;;;;;4991975;28;20208;-71
2023/09/29 07:42:51;;;;;;;5.35;4.80;;;21.10;99.90;;;;;;4992519;28;20185;-71
2023/09/29 07:45:18;;;;;;;7.37;5.10;;;21.10;99.90;;;;;;4992442;28;20660;-71
2023/09/29 07:47:44;;;;;;;8.20;4.70;;;21.10;99.90;;;;;;4992392;28;20200;-71
2023/09/29 07:50:10;;;;;;;7.38;4.65;;;21.10;99.90;;;;;;4992088;28;20196;-71
2023/09/29 07:52:38;;;;;;;5.95;4.80;;;21.20;99.90;;;;;;4985732;28;20677;-71
2023/09/29 07:55:07;;;;;;;5.25;4.43;;;21.40;99.90;;;;;;4990190;28;20268;-71
2023/09/29 07:57:33;;;;;;;10.05;4.65;;;21.60;99.90;;;;;;4983234;28;20207;-72
2023/09/29 07:59:59;;;;;;;5.80;4.50;;;21.80;99.90;;;;;;4990076;28;20212;-72
2023/09/29 08:02:26;;;;;;;5.10;4.20;;;22.00;99.90;;;;;;4984056;28;20187;-71
2023/09/29 08:04:52;;;;;;;8.05;4.65;;;22.10;99.90;;;;;;4984680;28;20667;-71
2023/09/29 08:07:19;;;;;;;4.93;4.43;;;22.20;99.90;;;;;;4985972;28;20188;-71
2023/09/29 08:09:45;;;;;;;10.10;4.82;;;22.40;99.90;;;;;;4990789;28;20203;-71
2023/09/29 08:12:11;;;;;;;6.68;4.88;;;22.40;99.90;;;;;;4989973;28;20193;-72
2023/09/29 08:14:37;;;;;;;5.63;4.63;;;22.40;99.90;;;;;;4986188;28;20540;-72
2023/09/29 08:17:02;;;;;;;6.28;4.53;;;22.30;99.90;;;;;;4991947;28;20230;-72
2023/09/29 08:19:29;;;;;;;5.53;4.80;;;22.30;99.90;;;;;;4991897;28;20209;-72
2023/09/29 08:21:55;;;;;;;6.07;4.68;;;22.20;99.90;;;;;;4991568;28;20201;-71
2023/09/29 08:24:22;;;;;;;11.73;5.10;;;22.20;99.90;;;;;;4991776;28;20208;-71
2023/09/29 08:26:47;;;;;;;6.03;5.40;;;22.30;99.90;;;;;;4992056;28;20307;-71
2023/09/29 08:29:16;;;;;;;8.15;5.10;;;22.30;99.90;;;;;;4990448;28;20696;-72
2023/09/29 08:31:45;;;;;;;6.38;5.20;;;22.40;99.90;;;;;;4984152;28;20184;-72
2023/09/29 08:34:11;;;;;;;6.07;4.70;;;22.50;99.90;;;;;;4984422;28;20211;-72
2023/09/29 08:36:37;;;;;;;9.07;5.43;;;22.70;99.90;;;;;;4991783;28;20264;-71
2023/09/29 08:39:03;;;;;;;5.63;4.85;;;22.70;99.90;;;;;;4991565;28;20263;-71
2023/09/29 08:41:29;;;;;;;6.13;4.88;;;22.70;99.90;;;;;;4991346;28;20180;-71
2023/09/29 08:43:55;;;;;;;9.60;4.97;;;22.80;99.90;;;;;;4991479;28;20251;-72
2023/09/29 08:46:21;;;;;;;4.70;4.18;;;23.10;99.90;;;;;;4991437;28;20197;-71
2023/09/29 08:48:48;;;;;;;7.70;4.15;;;23.80;99.90;;;;;;4985455;28;20188;-71
2023/09/29 08:51:15;;;;;;;4.82;4.22;;;24.50;99.90;;;;;;4990174;28;20227;-71
2023/09/29 08:53:42;;;;;;;6.03;4.55;;;25.20;99.90;;;;;;4991737;28;20546;-71
2023/09/29 08:56:12;;;;;;;5.20;4.00;;;25.90;99.90;;;;;;4991287;28;20191;-71
2023/09/29 08:58:38;;;;;;;8.40;4.22;;;26.60;99.90;;;;;;4991655;28;20542;-71
2023/09/29 09:01:04;;;;;;;5.63;4.05;;;27.30;99.90;;;;;;4991193;28;20201;-72
2023/09/29 09:03:30;;;;;;;4.22;3.15;;;27.80;99.90;;;;;;4985797;28;20193;-71
2023/09/29 09:05:55;;;;;;;4.18;3.00;;;28.40;99.90;;;;;;4991454;28;20640;-71
2023/09/29 09:08:23;;;;;;;3.63;3.33;;;28.80;99.90;;;;;;4983139;28;20181;-72
2023/09/29 09:10:56;;;;;;;4.15;3.30;;;29.30;99.90;;;;;;4991687;28;20223;-71
2023/09/29 09:13:22;;;;;;;4.25;2.78;;;29.60;99.90;;;;;;4990149;28;20208;-72
2023/09/29 09:15:58;;;;;;;3.63;3.10;;;30.00;99.90;;;;;;4995150;28;20183;-72
2023/09/29 09:18:27;;;;;;;3.80;2.70;;;30.30;99.90;;;;;;4994941;28;20184;-72
2023/09/29 09:20:57;;;;;;;5.53;2.90;;;30.40;99.90;;;;;;4994962;28;20732;-72
2023/09/29 09:23:23;;;;;;;15.75;4.82;;;30.10;99.90;;;;;;4987327;28;20323;-73
2023/09/29 09:25:49;;;;;;;19.05;5.25;;;29.70;99.90;;;;;;4994979;28;20267;-72
2023/09/29 09:28:19;;;;;;;6.97;3.70;;;28.90;99.90;;;;;;4994694;28;20188;-73
2023/09/29 09:30:46;;;;;;;6.85;5.65;;;28.20;99.90;;;;;;4989259;28;20213;-70
2023/09/29 09:33:21;;;;;;;10.35;5.55;;;27.40;99.90;;;;;;4994703;28;20240;-73
2023/09/29 09:35:48;;;;;;;4.82;3.20;;;26.90;99.90;;;;;;4994963;28;20717;-73
2023/09/29 09:38:13;;;;;;;4.78;3.85;;;26.70;99.90;;;;;;4994451;28;20243;-73
2023/09/29 09:40:40;;;;;;;6.00;3.97;;;26.70;99.90;;;;;;4994564;28;20204;-73
2023/09/29 09:43:07;;;;;;;5.32;3.20;;;26.60;99.90;;;;;;4992789;28;20184;-72
2023/09/29 09:45:39;;;;;;;4.95;3.22;;;26.40;99.90;;;;;;4994582;28;20176;-71
2023/09/29 09:48:07;;;;;;;6.55;4.20;;;26.10;99.90;;;;;;4994286;28;20203;-71
2023/09/29 09:50:33;;;;;;;6.90;4.60;;;25.60;99.90;;;;;;4992562;28;20371;-71
2023/09/29 09:53:03;;;;;;;4.43;3.38;;;25.30;99.90;;;;;;4990879;28;20244;-73
2023/09/29 09:55:55;;;;;;;3.55;3.25;;;25.10;99.90;;;;;;4979038;28;20180;-72
2023/09/29 09:58:23;;;;;;;3.55;3.20;;;24.90;99.90;;;;;;4981676;28;20197;-70
2023/09/29 10:00:55;;;;;;;6.05;3.22;;;24.70;99.90;;;;;;4983485;28;20303;-71
2023/09/29 10:03:21;;;;;;;3.85;3.25;;;24.60;99.90;;;;;;4980952;28;20546;-72
2023/09/29 10:05:52;;;;;;;3.70;3.08;;;24.60;99.90;;;;;;4987878;28;20176;-71
2023/09/29 10:08:24;;;;;;;6.75;4.82;;;24.50;99.90;;;;;;4993890;28;20221;-71
2023/09/29 10:10:50;;;;;;;9.00;4.10;;;24.20;99.90;;;;;;4993183;28;20197;-71
2023/09/29 10:13:16;;;;;;;5.40;3.53;;;24.00;99.90;;;;;;4994077;28;20215;-71
2023/09/29 10:15:56;;;;;;;5.75;4.13;;;24.00;99.90;;;;;;4994217;28;20235;-71
2023/09/29 10:18:22;;;;;;;6.55;4.10;;;23.90;99.90;;;;;;4993742;28;20177;-71
2023/09/29 10:20:55;;;;;;;6.18;4.72;;;23.90;99.90;;;;;;4993935;28;20633;-72
2023/09/29 10:23:25;;;;;;;8.52;4.30;;;24.00;99.90;;;;;;4986046;28;20656;-71
2023/09/29 10:26:00;;;;;;;6.22;4.28;;;24.00;99.90;;;;;;4993692;28;20234;-71
2023/09/29 10:28:33;;;;;;;8.90;4.55;;;24.20;99.90;;;;;;4993717;28;20180;-71
2023/09/29 10:31:15;;;;;;;8.57;6.03;;;24.40;99.90;;;;;;4988495;28;20228;-69
2023/09/29 10:34:00;;;;;;;6.95;5.15;;;24.60;99.90;;;;;;4982105;28;20648;-71
2023/09/29 10:36:30;;;;;;;14.15;5.05;;;24.90;99.90;;;;;;4988120;28;20263;-72
2023/09/29 10:38:57;;;;;;;8.60;5.03;;;25.20;99.90;;;;;;4977158;28;20555;-71
2023/09/29 10:41:24;;;;;;;9.48;4.55;;;25.50;99.90;;;;;;4981185;28;20638;-71
2023/09/29 10:43:50;;;;;;;8.93;4.82;;;25.60;99.90;;;;;;4989840;28;20604;-71
2023/09/29 10:46:18;;;;;;;10.27;5.15;;;25.70;99.90;;;;;;4989337;28;20192;-71
2023/09/29 10:48:48;;;;;;;9.02;5.28;;;25.90;99.90;;;;;;4990621;28;20663;-71
2023/09/29 10:51:43;;;;;;;9.38;5.78;;;25.90;99.90;;;;;;4993358;28;20591;-71
2023/09/29 10:54:09;;;;;;;10.38;5.80;;;25.80;99.90;;;;;;4967176;28;20739;-72
2023/09/29 10:56:36;;;;;;;8.82;5.25;;;25.90;99.90;;;;;;4987340;28;20216;-71
2023/09/29 10:59:09;;;;;;;9.45;5.95;;;26.10;99.90;;;;;;4981860;28;20181;-71
2023/09/29 11:01:35;;;;;;;13.70;6.43;;;26.30;99.90;;;;;;4977864;28;20664;-71
2023/09/29 11:04:07;;;;;;;10.00;6.80;;;26.30;99.90;;;;;;4986967;28;20706;-72
2023/09/29 11:06:45;;;;;;;10.30;6.80;;;26.20;99.90;;;;;;4978035;28;20185;-71
2023/09/29 11:09:19;;;;;;;14.63;6.05;;;25.90;99.90;;;;;;4992895;28;20227;-71
2023/09/29 11:11:45;;;;;;;9.65;5.50;;;25.90;99.90;;;;;;4993280;28;20176;-71
2023/09/29 11:14:11;;;;;;;11.98;6.88;;;26.00;99.90;;;;;;4992818;28;20258;-71
2023/09/29 11:16:37;;;;;;;12.80;7.05;;;26.10;99.90;;;;;;4987880;28;20181;-71
2023/09/29 11:19:15;;;;;;;12.95;6.13;;;26.10;99.90;;;;;;4985273;28;20181;-72
2023/09/29 11:21:41;;;;;;;13.18;6.85;;;26.20;99.90;;;;;;4984746;28;20272;-71
2023/09/29 11:24:19;;;;;;;10.63;6.68;;;26.30;99.90;;;;;;4992642;28;20184;-71
2023/09/29 11:26:50;;;;;;;13.60;6.50;;;26.30;99.90;;;;;;4992911;28;20237;-70
2023/09/29 11:29:20;;;;;;;12.52;5.72;;;26.20;99.90;;;;;;4992449;28;20205;-72
2023/09/29 11:31:47;;;;;;;11.02;5.90;;;26.00;99.90;;;;;;4988811;28;20184;-70
2023/09/29 11:34:14;;;;;;;11.80;5.25;;;25.80;99.90;;;;;;4986633;28;20243;-70
2023/09/29 11:36:43;;;;;;;10.20;4.88;;;25.40;99.90;;;;;;4979363;28;20533;-70
2023/09/29 11:39:09;;;;;;;10.02;6.60;;;25.20;99.90;;;;;;4992015;28;20192;-70
2023/09/29 11:41:36;;;;;;;10.10;5.30;;;25.00;99.90;;;;;;4991807;28;20201;-70
2023/09/29 11:44:01;;;;;;;12.00;5.47;;;25.00;99.90;;;;;;4992380;28;20181;-70
2023/09/29 11:46:27;;;;;;;10.00;5.70;;;25.10;99.90;;;;;;4992025;28;20199;-70
2023/09/29 11:48:53;;;;;;;13.15;6.32;;;25.40;99.90;;;;;;4992587;28;20191;-69
2023/09/29 11:51:19;;;;;;;11.07;5.63;;;25.40;99.90;;;;;;4980649;28;20184;-71
2023/09/29 11:53:45;;;;;;;8.55;4.93;;;25.50;99.90;;;;;;4985960;28;20205;-70
2023/09/29 11:56:10;;;;;;;9.68;5.10;;;25.80;99.90;;;;;;4984493;28;20180;-70
2023/09/29 11:58:37;;;;;;;9.60;5.32;;;26.10;99.90;;;;;;4992167;28;20169;-71
2023/09/29 12:01:03;;;;;;;12.15;5.93;;;26.20;99.90;;;;;;4987253;28;20201;-73
2023/09/29 12:03:29;;;;;;;11.00;5.70;;;26.30;99.90;;;;;;4991517;28;20193;-70
2023/09/29 12:05:56;;;;;;;8.32;5.15;;;26.30;99.90;;;;;;4992101;28;20682;-70
2023/09/29 12:08:22;;;;;;;8.32;5.15;;;26.30;99.90;;;;;;4991671;28;20267;-70
2023/09/29 12:10:47;;;;;;;9.20;4.63;;;26.30;99.90;;;;;;4991883;28;20280;-70
2023/09/29 12:13:15;;;;;;;9.10;5.32;;;26.40;99.90;;;;;;4991886;28;20745;-71
2023/09/29 12:15:45;;;;;;;8.88;4.63;;;26.20;99.90;;;;;;4987150;28;20264;-71
2023/09/29 12:18:11;;;;;;;9.05;5.47;;;26.10;99.90;;;;;;4988562;28;20192;-70
2023/09/29 12:20:38;;;;;;;9.25;5.40;;;26.10;99.90;;;;;;4991854;28;20279;-72
2023/09/29 12:23:06;;;;;;;8.85;4.40;;;26.10;99.90;;;;;;4991901;28;20191;-71
2023/09/29 12:25:32;;;;;;;10.10;4.85;;;26.10;99.90;;;;;;4991896;28;20185;-71
2023/09/29 12:27:58;;;;;;;12.63;4.28;;;25.90;99.90;;;;;;4987829;28;20197;-71
2023/09/29 12:30:24;;;;;;;8.93;5.25;;;25.40;99.90;;;;;;4984542;28;20743;-71
2023/09/29 12:32:50;;;;;;;9.52;6.13;;;25.00;99.90;;;;;;4979713;28;20291;-71
2023/09/29 12:35:17;;;;;;;11.93;6.38;;;24.60;99.90;;;;;;4991788;28;20183;-71
2023/09/29 12:37:44;;;;;;;8.13;4.85;;;24.30;99.90;;;;;;4991797;28;20177;-71
2023/09/29 12:40:11;;;;;;;13.65;5.05;;;24.10;99.90;;;;;;4991856;28;20193;-72
2023/09/29 12:42:46;;;;;;;11.00;5.47;;;24.10;99.90;;;;;;4975730;28;20192;-71
2023/09/29 12:45:20;;;;;;;11.35;4.80;;;24.00;99.90;;;;;;4985762;28;20710;-72